sensor_id;sensor_type;location;lat;lon;timestamp;temperature;humidity
24085;DHT22;12268;52.110;5.548;2024-02-21T00:07:08;11.30;99.90
24085;DHT22;12268;52.110;5.548;2024-02-21T00:09:34;11.20;99.90
24085;DHT22;12268;52.110;5.548;2024-02-21T00:11:59;11.20;99.90
24085;DHT22;12268;52.110;5.548;2024-02-21T00:14:26;11.10;99.90
24085;DHT22;12268;52.110;5.548;2024-02-21T00:16:52;11.20;99.90
24085;DHT22;12268;52.110;5.548;2024-02-21T00:19:17;11.10;99.90
24085;DHT22;12268;52.110;5.548;2024-02-21T00:21:43;11.10;99.90
24085;DHT22;12268;52.110;5.548;2024-02-21T00:24:08;11.20;99.90
24085;DHT22;12268;52.110;5.548;2024-02-21T00:26:34;11.30;99.90
24085;DHT22;12268;52.110;5.548;2024-02-21T00:28:59;11.30;99.90
24085;DHT22;12268;52.110;5.548;2024-02-21T00:31:25;11.40;99.90
24085;DHT22;12268;52.110;5.548;2024-02-21T00:33:51;11.40;99.90
24085;DHT22;12268;52.110;5.548;2024-02-21T00:36:16;11.30;99.90
24085;DHT22;12268;52.110;5.548;2024-02-21T00:38:42;11.30;99.90
24085;DHT22;12268;52.110;5.548;2024-02-21T00:41:08;11.20;99.90
24085;DHT22;12268;52.110;5.548;2024-02-21T00:43:33;11.20;99.90
24085;DHT22;12268;52.110;5.548;2024-02-21T00:45:59;11.20;99.90
24085;DHT22;12268;52.110;5.548;2024-02-21T00:48:24;11.30;99.90
24085;DHT22;12268;52.110;5.548;2024-02-21T00:50:50;11.30;99.90
24085;DHT22;12268;52.110;5.548;2024-02-21T00:53:16;11.30;99.90
24085;DHT22;12268;52.110;5.548;2024-02-21T00:55:41;11.50;99.90
24085;DHT22;12268;52.110;5.548;2024-02-21T00:58:08;11.50;99.90
24085;DHT22;12268;52.110;5.548;2024-02-21T01:00:34;11.50;99.90
24085;DHT22;12268;52.110;5.548;2024-02-21T01:03:00;11.50;99.90
24085;DHT22;12268;52.110;5.548;2024-02-21T01:05:25;11.40;99.90
24085;DHT22;12268;52.110;5.548;2024-02-21T01:07:52;11.40;99.90
24085;DHT22;12268;52.110;5.548;2024-02-21T01:10:18;11.40;99.90
24085;DHT22;12268;52.110;5.548;2024-02-21T01:12:43;11.30;99.90
24085;DHT22;12268;52.110;5.548;2024-02-21T01:15:09;11.20;99.90
24085;DHT22;12268;52.110;5.548;2024-02-21T01:17:35;11.20;99.90
24085;DHT22;12268;52.110;5.548;2024-02-21T01:20:01;11.30;99.90
24085;DHT22;12268;52.110;5.548;2024-02-21T01:22:27;11.30;99.90
24085;DHT22;12268;52.110;5.548;2024-02-21T01:24:52;11.20;99.90
24085;DHT22;12268;52.110;5.548;2024-02-21T01:27:18;11.10;99.90
24085;DHT22;12268;52.110;5.548;2024-02-21T01:29:43;11.30;99.90
24085;DHT22;12268;52.110;5.548;2024-02-21T01:32:09;11.30;99.90
24085;DHT22;12268;52.110;5.548;2024-02-21T01:34:34;11.40;99.90
24085;DHT22;12268;52.110;5.548;2024-02-21T01:37:00;11.40;99.90
24085;DHT22;12268;52.110;5.548;2024-02-21T01:39:30;11.40;99.90
24085;DHT22;12268;52.110;5.548;2024-02-21T01:41:55;11.30;99.90
24085;DHT22;12268;52.110;5.548;2024-02-21T01:44:21;11.20;99.90
24085;DHT22;12268;52.110;5.548;2024-02-21T01:46:46;11.10;99.90
24085;DHT22;12268;52.110;5.548;2024-02-21T01:49:12;11.10;99.90
24085;DHT22;12268;52.110;5.548;2024-02-21T01:51:38;11.20;99.90
24085;DHT22;12268;52.110;5.548;2024-02-21T01:54:05;11.30;99.90
24085;DHT22;12268;52.110;5.548;2024-02-21T01:56:31;11.40;99.90
24085;DHT22;12268;52.110;5.548;2024-02-21T01:58:57;11.60;99.90
24085;DHT22;12268;52.110;5.548;2024-02-21T02:01:22;11.50;99.90
24085;DHT22;12268;52.110;5.548;2024-02-21T02:03:48;11.50;99.90
24085;DHT22;12268;52.110;5.548;2024-02-21T02:06:14;11.60;99.90
24085;DHT22;12268;52.110;5.548;2024-02-21T02:08:40;11.60;99.90
24085;DHT22;12268;52.110;5.548;2024-02-21T02:11:06;11.50;99.90
24085;DHT22;12268;52.110;5.548;2024-02-21T02:13:32;11.40;99.90
24085;DHT22;12268;52.110;5.548;2024-02-21T02:15:57;11.40;99.90
24085;DHT22;12268;52.110;5.548;2024-02-21T02:18:23;11.50;99.90
24085;DHT22;12268;52.110;5.548;2024-02-21T02:20:49;11.40;99.90
24085;DHT22;12268;52.110;5.548;2024-02-21T02:23:29;11.40;99.90
24085;DHT22;12268;52.110;5.548;2024-02-21T02:25:55;11.40;99.90
24085;DHT22;12268;52.110;5.548;2024-02-21T02:28:21;11.50;99.90
24085;DHT22;12268;52.110;5.548;2024-02-21T02:30:47;11.40;99.90
24085;DHT22;12268;52.110;5.548;2024-02-21T02:33:13;11.50;99.90
24085;DHT22;12268;52.110;5.548;2024-02-21T02:35:39;11.50;99.90
24085;DHT22;12268;52.110;5.548;2024-02-21T02:38:05;11.40;99.90
24085;DHT22;12268;52.110;5.548;2024-02-21T02:40:33;11.40;99.90
24085;DHT22;12268;52.110;5.548;2024-02-21T02:42:58;11.40;99.90
24085;DHT22;12268;52.110;5.548;2024-02-21T02:45:24;11.30;99.90
24085;DHT22;12268;52.110;5.548;2024-02-21T02:47:52;11.30;99.90
24085;DHT22;12268;52.110;5.548;2024-02-21T02:50:19;11.30;99.90
24085;DHT22;12268;52.110;5.548;2024-02-21T02:52:45;11.30;99.90
24085;DHT22;12268;52.110;5.548;2024-02-21T02:55:11;11.30;99.90
24085;DHT22;12268;52.110;5.548;2024-02-21T02:57:37;11.30;99.90
24085;DHT22;12268;52.110;5.548;2024-02-21T03:00:03;11.30;99.90
24085;DHT22;12268;52.110;5.548;2024-02-21T03:02:29;11.30;99.90
24085;DHT22;12268;52.110;5.548;2024-02-21T03:04:56;11.40;99.90
24085;DHT22;12268;52.110;5.548;2024-02-21T03:07:22;11.30;99.90
24085;DHT22;12268;52.110;5.548;2024-02-21T03:09:47;11.40;99.90
24085;DHT22;12268;52.110;5.548;2024-02-21T03:12:13;11.50;99.90
24085;DHT22;12268;52.110;5.548;2024-02-21T03:14:44;11.50;99.90
24085;DHT22;12268;52.110;5.548;2024-02-21T03:17:10;11.50;99.90
24085;DHT22;12268;52.110;5.548;2024-02-21T03:19:35;11.50;99.90
24085;DHT22;12268;52.110;5.548;2024-02-21T03:22:01;11.50;99.90
24085;DHT22;12268;52.110;5.548;2024-02-21T03:24:26;11.50;99.90
24085;DHT22;12268;52.110;5.548;2024-02-21T03:26:52;11.40;99.90
24085;DHT22;12268;52.110;5.548;2024-02-21T03:29:18;11.40;99.90
24085;DHT22;12268;52.110;5.548;2024-02-21T03:31:43;11.50;99.90
24085;DHT22;12268;52.110;5.548;2024-02-21T03:34:12;11.50;99.90
24085;DHT22;12268;52.110;5.548;2024-02-21T03:36:37;11.60;99.90
24085;DHT22;12268;52.110;5.548;2024-02-21T03:39:04;11.60;99.90
24085;DHT22;12268;52.110;5.548;2024-02-21T03:41:29;11.60;99.90
24085;DHT22;12268;52.110;5.548;2024-02-21T03:43:55;11.70;99.90
24085;DHT22;12268;52.110;5.548;2024-02-21T03:46:21;11.60;99.90
24085;DHT22;12268;52.110;5.548;2024-02-21T03:48:46;11.60;99.90
24085;DHT22;12268;52.110;5.548;2024-02-21T03:51:12;11.50;99.90
24085;DHT22;12268;52.110;5.548;2024-02-21T03:53:37;11.50;99.90
24085;DHT22;12268;52.110;5.548;2024-02-21T03:56:04;11.40;99.90
24085;DHT22;12268;52.110;5.548;2024-02-21T03:58:30;11.30;99.90
24085;DHT22;12268;52.110;5.548;2024-02-21T04:00:56;11.30;99.90
24085;DHT22;12268;52.110;5.548;2024-02-21T04:03:21;11.30;99.90
24085;DHT22;12268;52.110;5.548;2024-02-21T04:05:47;11.30;99.90
24085;DHT22;12268;52.110;5.548;2024-02-21T04:08:13;11.30;99.90
24085;DHT22;12268;52.110;5.548;2024-02-21T04:10:39;11.40;99.90
24085;DHT22;12268;52.110;5.548;2024-02-21T04:13:06;11.40;99.90
24085;DHT22;12268;52.110;5.548;2024-02-21T04:15:32;11.50;99.90
24085;DHT22;12268;52.110;5.548;2024-02-21T04:17:58;11.40;99.90
24085;DHT22;12268;52.110;5.548;2024-02-21T04:20:23;11.50;99.90
24085;DHT22;12268;52.110;5.548;2024-02-21T04:22:49;11.50;99.90
24085;DHT22;12268;52.110;5.548;2024-02-21T04:25:15;11.60;99.90
24085;DHT22;12268;52.110;5.548;2024-02-21T04:27:41;11.70;99.90
24085;DHT22;12268;52.110;5.548;2024-02-21T04:30:07;11.50;99.90
24085;DHT22;12268;52.110;5.548;2024-02-21T04:32:33;11.40;99.90
24085;DHT22;12268;52.110;5.548;2024-02-21T04:34:59;11.40;99.90
24085;DHT22;12268;52.110;5.548;2024-02-21T04:37:25;11.50;99.90
24085;DHT22;12268;52.110;5.548;2024-02-21T04:39:50;11.50;99.90
24085;DHT22;12268;52.110;5.548;2024-02-21T04:42:16;11.40;99.90
24085;DHT22;12268;52.110;5.548;2024-02-21T04:44:42;11.40;99.90
24085;DHT22;12268;52.110;5.548;2024-02-21T04:47:08;11.50;99.90
24085;DHT22;12268;52.110;5.548;2024-02-21T04:49:34;11.70;99.90
24085;DHT22;12268;52.110;5.548;2024-02-21T04:52:00;11.80;99.90
24085;DHT22;12268;52.110;5.548;2024-02-21T04:54:26;12.00;99.90
24085;DHT22;12268;52.110;5.548;2024-02-21T04:56:51;12.10;99.90
24085;DHT22;12268;52.110;5.548;2024-02-21T04:59:17;12.20;99.90
24085;DHT22;12268;52.110;5.548;2024-02-21T05:01:43;12.30;99.90
24085;DHT22;12268;52.110;5.548;2024-02-21T05:04:08;12.20;99.90
24085;DHT22;12268;52.110;5.548;2024-02-21T05:06:38;12.10;99.90
24085;DHT22;12268;52.110;5.548;2024-02-21T05:09:04;11.90;99.90
24085;DHT22;12268;52.110;5.548;2024-02-21T05:11:31;12.00;99.90
24085;DHT22;12268;52.110;5.548;2024-02-21T05:13:56;11.80;99.90
24085;DHT22;12268;52.110;5.548;2024-02-21T05:16:22;12.00;99.90
24085;DHT22;12268;52.110;5.548;2024-02-21T05:18:47;11.80;99.90
24085;DHT22;12268;52.110;5.548;2024-02-21T05:21:13;11.90;99.90
24085;DHT22;12268;52.110;5.548;2024-02-21T05:23:39;12.00;99.90
24085;DHT22;12268;52.110;5.548;2024-02-21T05:26:05;11.90;99.90
24085;DHT22;12268;52.110;5.548;2024-02-21T05:28:31;12.10;99.90
24085;DHT22;12268;52.110;5.548;2024-02-21T05:30:57;12.20;99.90
24085;DHT22;12268;52.110;5.548;2024-02-21T05:33:24;12.20;99.90
24085;DHT22;12268;52.110;5.548;2024-02-21T05:35:49;12.20;99.90
24085;DHT22;12268;52.110;5.548;2024-02-21T05:38:15;12.30;99.90
24085;DHT22;12268;52.110;5.548;2024-02-21T05:40:41;12.40;99.90
24085;DHT22;12268;52.110;5.548;2024-02-21T05:43:07;12.30;99.90
24085;DHT22;12268;52.110;5.548;2024-02-21T05:45:33;12.10;99.90
24085;DHT22;12268;52.110;5.548;2024-02-21T05:48:00;12.10;99.90
24085;DHT22;12268;52.110;5.548;2024-02-21T05:53:59;12.10;99.90
24085;DHT22;12268;52.110;5.548;2024-02-21T05:56:25;12.20;99.90
24085;DHT22;12268;52.110;5.548;2024-02-21T05:58:50;12.40;99.90
24085;DHT22;12268;52.110;5.548;2024-02-21T06:01:16;12.20;99.90
24085;DHT22;12268;52.110;5.548;2024-02-21T06:03:43;12.50;99.90
24085;DHT22;12268;52.110;5.548;2024-02-21T06:06:08;12.50;99.90
24085;DHT22;12268;52.110;5.548;2024-02-21T06:08:34;12.40;99.90
24085;DHT22;12268;52.110;5.548;2024-02-21T06:11:00;12.40;99.90
24085;DHT22;12268;52.110;5.548;2024-02-21T06:13:25;12.20;99.90
24085;DHT22;12268;52.110;5.548;2024-02-21T06:15:51;12.00;99.90
24085;DHT22;12268;52.110;5.548;2024-02-21T06:18:17;12.00;99.90
24085;DHT22;12268;52.110;5.548;2024-02-21T06:20:43;11.70;99.90
24085;DHT22;12268;52.110;5.548;2024-02-21T06:23:09;11.90;99.90
24085;DHT22;12268;52.110;5.548;2024-02-21T06:25:35;11.90;99.90
24085;DHT22;12268;52.110;5.548;2024-02-21T06:28:00;12.00;99.90
24085;DHT22;12268;52.110;5.548;2024-02-21T06:30:26;11.80;99.90
24085;DHT22;12268;52.110;5.548;2024-02-21T06:43:13;11.80;99.90
24085;DHT22;12268;52.110;5.548;2024-02-21T06:45:39;11.60;99.90
24085;DHT22;12268;52.110;5.548;2024-02-21T06:48:05;11.50;99.90
24085;DHT22;12268;52.110;5.548;2024-02-21T06:50:30;11.60;99.90
24085;DHT22;12268;52.110;5.548;2024-02-21T06:52:56;11.80;99.90
24085;DHT22;12268;52.110;5.548;2024-02-21T06:55:21;11.60;99.90
24085;DHT22;12268;52.110;5.548;2024-02-21T06:57:47;11.50;99.90
24085;DHT22;12268;52.110;5.548;2024-02-21T07:00:14;11.40;99.90
24085;DHT22;12268;52.110;5.548;2024-02-21T07:02:39;11.30;99.90
24085;DHT22;12268;52.110;5.548;2024-02-21T07:05:05;11.50;99.90
24085;DHT22;12268;52.110;5.548;2024-02-21T07:07:31;11.60;99.90
24085;DHT22;12268;52.110;5.548;2024-02-21T07:09:56;11.80;99.90
24085;DHT22;12268;52.110;5.548;2024-02-21T07:12:22;11.70;99.90
24085;DHT22;12268;52.110;5.548;2024-02-21T07:14:47;11.90;99.90
24085;DHT22;12268;52.110;5.548;2024-02-21T07:17:13;12.00;99.90
24085;DHT22;12268;52.110;5.548;2024-02-21T07:19:39;12.10;99.90
24085;DHT22;12268;52.110;5.548;2024-02-21T07:22:04;12.00;99.90
24085;DHT22;12268;52.110;5.548;2024-02-21T07:24:30;12.10;99.90
24085;DHT22;12268;52.110;5.548;2024-02-21T07:26:57;12.10;99.90
24085;DHT22;12268;52.110;5.548;2024-02-21T07:29:23;12.00;99.90
24085;DHT22;12268;52.110;5.548;2024-02-21T07:31:48;12.00;99.90
24085;DHT22;12268;52.110;5.548;2024-02-21T07:34:14;11.80;99.90
24085;DHT22;12268;52.110;5.548;2024-02-21T07:36:40;11.80;99.90
24085;DHT22;12268;52.110;5.548;2024-02-21T07:39:07;11.60;99.90
24085;DHT22;12268;52.110;5.548;2024-02-21T07:41:33;11.70;99.90
24085;DHT22;12268;52.110;5.548;2024-02-21T07:44:00;11.80;99.90
24085;DHT22;12268;52.110;5.548;2024-02-21T07:46:25;11.90;99.90
24085;DHT22;12268;52.110;5.548;2024-02-21T07:48:51;11.90;99.90
24085;DHT22;12268;52.110;5.548;2024-02-21T07:51:16;11.90;99.90
24085;DHT22;12268;52.110;5.548;2024-02-21T07:53:43;12.10;99.90
24085;DHT22;12268;52.110;5.548;2024-02-21T07:56:13;12.10;99.90
24085;DHT22;12268;52.110;5.548;2024-02-21T07:58:40;12.10;99.90
24085;DHT22;12268;52.110;5.548;2024-02-21T08:01:06;12.20;99.90
24085;DHT22;12268;52.110;5.548;2024-02-21T08:03:31;12.20;99.90
24085;DHT22;12268;52.110;5.548;2024-02-21T08:05:57;12.40;99.90
24085;DHT22;12268;52.110;5.548;2024-02-21T08:08:22;12.30;99.90
24085;DHT22;12268;52.110;5.548;2024-02-21T08:10:51;12.50;99.90
24085;DHT22;12268;52.110;5.548;2024-02-21T08:13:17;12.20;99.90
24085;DHT22;12268;52.110;5.548;2024-02-21T08:15:43;12.30;99.90
24085;DHT22;12268;52.110;5.548;2024-02-21T08:18:09;12.20;99.90
24085;DHT22;12268;52.110;5.548;2024-02-21T08:20:34;12.20;99.90
24085;DHT22;12268;52.110;5.548;2024-02-21T08:23:00;12.20;99.90
24085;DHT22;12268;52.110;5.548;2024-02-21T08:25:26;12.10;99.90
24085;DHT22;12268;52.110;5.548;2024-02-21T08:27:55;12.10;99.90
24085;DHT22;12268;52.110;5.548;2024-02-21T08:30:21;12.20;99.90
24085;DHT22;12268;52.110;5.548;2024-02-21T08:32:46;12.20;99.90
24085;DHT22;12268;52.110;5.548;2024-02-21T08:35:12;12.40;99.90
24085;DHT22;12268;52.110;5.548;2024-02-21T08:37:38;12.50;99.90
24085;DHT22;12268;52.110;5.548;2024-02-21T08:40:04;12.50;99.90
24085;DHT22;12268;52.110;5.548;2024-02-21T08:42:38;12.40;99.90
24085;DHT22;12268;52.110;5.548;2024-02-21T08:45:04;12.50;99.90
24085;DHT22;12268;52.110;5.548;2024-02-21T08:47:30;12.30;99.90
24085;DHT22;12268;52.110;5.548;2024-02-21T08:49:56;12.20;99.90
24085;DHT22;12268;52.110;5.548;2024-02-21T08:52:21;12.30;99.90
24085;DHT22;12268;52.110;5.548;2024-02-21T08:54:47;12.30;99.90
24085;DHT22;12268;52.110;5.548;2024-02-21T08:57:12;12.40;99.90
24085;DHT22;12268;52.110;5.548;2024-02-21T08:59:39;12.50;99.90
24085;DHT22;12268;52.110;5.548;2024-02-21T09:02:05;12.50;99.90
24085;DHT22;12268;52.110;5.548;2024-02-21T09:04:32;12.40;99.90
24085;DHT22;12268;52.110;5.548;2024-02-21T09:06:58;12.30;99.90
24085;DHT22;12268;52.110;5.548;2024-02-21T09:09:24;12.30;99.90
24085;DHT22;12268;52.110;5.548;2024-02-21T09:11:50;12.40;99.90
24085;DHT22;12268;52.110;5.548;2024-02-21T09:14:15;12.40;99.90
24085;DHT22;12268;52.110;5.548;2024-02-21T09:16:41;12.60;99.90
24085;DHT22;12268;52.110;5.548;2024-02-21T09:19:06;12.70;99.90
24085;DHT22;12268;52.110;5.548;2024-02-21T09:21:36;12.60;99.90
24085;DHT22;12268;52.110;5.548;2024-02-21T09:24:02;12.50;99.90
24085;DHT22;12268;52.110;5.548;2024-02-21T09:26:28;12.20;99.90
24085;DHT22;12268;52.110;5.548;2024-02-21T09:28:53;12.10;99.90
24085;DHT22;12268;52.110;5.548;2024-02-21T09:31:19;12.30;99.90
24085;DHT22;12268;52.110;5.548;2024-02-21T09:33:45;12.30;99.90
24085;DHT22;12268;52.110;5.548;2024-02-21T09:36:10;12.60;99.90
24085;DHT22;12268;52.110;5.548;2024-02-21T09:38:36;12.60;99.90
24085;DHT22;12268;52.110;5.548;2024-02-21T09:41:16;12.60;99.90
24085;DHT22;12268;52.110;5.548;2024-02-21T09:43:44;12.60;99.90
24085;DHT22;12268;52.110;5.548;2024-02-21T09:46:16;12.50;99.90
24085;DHT22;12268;52.110;5.548;2024-02-21T09:51:19;12.70;99.90
24085;DHT22;12268;52.110;5.548;2024-02-21T09:53:45;12.70;99.90
24085;DHT22;12268;52.110;5.548;2024-02-21T09:56:13;12.50;99.90
24085;DHT22;12268;52.110;5.548;2024-02-21T09:58:39;12.60;99.90
24085;DHT22;12268;52.110;5.548;2024-02-21T10:01:06;12.70;99.90
24085;DHT22;12268;52.110;5.548;2024-02-21T10:03:32;12.50;99.90
24085;DHT22;12268;52.110;5.548;2024-02-21T10:06:01;12.70;99.90
24085;DHT22;12268;52.110;5.548;2024-02-21T10:08:27;12.80;99.90
24085;DHT22;12268;52.110;5.548;2024-02-21T10:10:53;12.60;99.90
24085;DHT22;12268;52.110;5.548;2024-02-21T10:13:26;12.60;99.90
24085;DHT22;12268;52.110;5.548;2024-02-21T10:16:06;12.60;99.90
24085;DHT22;12268;52.110;5.548;2024-02-21T10:18:32;12.60;99.90
24085;DHT22;12268;52.110;5.548;2024-02-21T10:23:27;12.50;99.90
24085;DHT22;12268;52.110;5.548;2024-02-21T10:25:53;12.50;99.90
24085;DHT22;12268;52.110;5.548;2024-02-21T10:28:18;12.60;99.90
24085;DHT22;12268;52.110;5.548;2024-02-21T10:30:52;12.70;99.90
24085;DHT22;12268;52.110;5.548;2024-02-21T10:33:18;12.50;99.90
24085;DHT22;12268;52.110;5.548;2024-02-21T10:35:46;12.50;99.90
24085;DHT22;12268;52.110;5.548;2024-02-21T10:38:12;12.80;99.90
24085;DHT22;12268;52.110;5.548;2024-02-21T10:40:38;12.90;99.90
24085;DHT22;12268;52.110;5.548;2024-02-21T10:43:06;12.90;99.90
24085;DHT22;12268;52.110;5.548;2024-02-21T10:45:36;12.80;99.90
24085;DHT22;12268;52.110;5.548;2024-02-21T10:48:14;12.90;99.90
24085;DHT22;12268;52.110;5.548;2024-02-21T10:56:30;13.00;99.90
24085;DHT22;12268;52.110;5.548;2024-02-21T10:58:58;12.90;99.90
24085;DHT22;12268;52.110;5.548;2024-02-21T11:01:26;12.90;99.90
24085;DHT22;12268;52.110;5.548;2024-02-21T11:03:56;12.90;99.90
24085;DHT22;12268;52.110;5.548;2024-02-21T11:06:22;13.00;99.90
24085;DHT22;12268;52.110;5.548;2024-02-21T11:09:05;13.10;99.90
24085;DHT22;12268;52.110;5.548;2024-02-21T11:11:44;13.20;99.90
24085;DHT22;12268;52.110;5.548;2024-02-21T11:14:11;13.20;99.90
24085;DHT22;12268;52.110;5.548;2024-02-21T11:19:09;13.20;99.90
24085;DHT22;12268;52.110;5.548;2024-02-21T11:21:37;13.10;99.90
24085;DHT22;12268;52.110;5.548;2024-02-21T11:24:03;12.80;99.90
24085;DHT22;12268;52.110;5.548;2024-02-21T11:26:30;12.30;99.90
24085;DHT22;12268;52.110;5.548;2024-02-21T11:29:02;12.30;99.90
24085;DHT22;12268;52.110;5.548;2024-02-21T11:31:40;12.10;99.90
24085;DHT22;12268;52.110;5.548;2024-02-21T11:34:09;12.00;99.90
24085;DHT22;12268;52.110;5.548;2024-02-21T11:36:35;12.00;99.90
24085;DHT22;12268;52.110;5.548;2024-02-21T11:39:04;11.90;99.90
24085;DHT22;12268;52.110;5.548;2024-02-21T11:41:31;12.10;99.90
24085;DHT22;12268;52.110;5.548;2024-02-21T11:43:57;12.20;99.90
24085;DHT22;12268;52.110;5.548;2024-02-21T11:46:22;12.30;99.90
24085;DHT22;12268;52.110;5.548;2024-02-21T11:48:49;12.30;99.90
24085;DHT22;12268;52.110;5.548;2024-02-21T11:51:26;12.30;99.90
24085;DHT22;12268;52.110;5.548;2024-02-21T11:53:55;12.10;99.90
24085;DHT22;12268;52.110;5.548;2024-02-21T11:56:20;12.10;99.90
24085;DHT22;12268;52.110;5.548;2024-02-21T11:58:48;12.10;99.90
24085;DHT22;12268;52.110;5.548;2024-02-21T12:01:14;12.20;99.90
24085;DHT22;12268;52.110;5.548;2024-02-21T12:03:40;12.20;99.90
24085;DHT22;12268;52.110;5.548;2024-02-21T12:06:07;12.20;99.90
24085;DHT22;12268;52.110;5.548;2024-02-21T12:08:45;12.30;99.90
24085;DHT22;12268;52.110;5.548;2024-02-21T12:11:24;12.50;99.90
24085;DHT22;12268;52.110;5.548;2024-02-21T12:14:03;12.90;99.90
24085;DHT22;12268;52.110;5.548;2024-02-21T12:16:33;13.00;99.90
24085;DHT22;12268;52.110;5.548;2024-02-21T12:19:00;13.30;99.90
24085;DHT22;12268;52.110;5.548;2024-02-21T12:21:26;13.40;99.90
24085;DHT22;12268;52.110;5.548;2024-02-21T12:23:54;13.60;99.90
24085;DHT22;12268;52.110;5.548;2024-02-21T12:26:20;13.80;99.90
24085;DHT22;12268;52.110;5.548;2024-02-21T12:28:46;14.00;99.90
24085;DHT22;12268;52.110;5.548;2024-02-21T12:31:12;14.00;99.90
24085;DHT22;12268;52.110;5.548;2024-02-21T12:33:38;14.00;99.90
24085;DHT22;12268;52.110;5.548;2024-02-21T12:36:03;14.00;99.90
24085;DHT22;12268;52.110;5.548;2024-02-21T12:38:29;13.80;99.90
24085;DHT22;12268;52.110;5.548;2024-02-21T12:40:55;13.60;99.90
24085;DHT22;12268;52.110;5.548;2024-02-21T12:43:23;13.40;99.90
24085;DHT22;12268;52.110;5.548;2024-02-21T12:45:49;13.30;99.90
24085;DHT22;12268;52.110;5.548;2024-02-21T12:48:14;13.30;99.90
24085;DHT22;12268;52.110;5.548;2024-02-21T12:50:50;13.60;99.90
24085;DHT22;12268;52.110;5.548;2024-02-21T12:53:20;13.50;99.90
24085;DHT22;12268;52.110;5.548;2024-02-21T12:55:50;13.40;99.90
24085;DHT22;12268;52.110;5.548;2024-02-21T12:58:16;13.60;99.90
24085;DHT22;12268;52.110;5.548;2024-02-21T13:00:42;13.70;99.90
24085;DHT22;12268;52.110;5.548;2024-02-21T13:03:08;13.70;99.90
24085;DHT22;12268;52.110;5.548;2024-02-21T13:05:35;13.70;99.90
24085;DHT22;12268;52.110;5.548;2024-02-21T13:08:01;13.90;99.90
24085;DHT22;12268;52.110;5.548;2024-02-21T13:10:27;13.70;99.90
24085;DHT22;12268;52.110;5.548;2024-02-21T13:12:53;13.60;99.90
24085;DHT22;12268;52.110;5.548;2024-02-21T13:15:20;13.60;99.90
24085;DHT22;12268;52.110;5.548;2024-02-21T13:17:45;13.60;99.90
24085;DHT22;12268;52.110;5.548;2024-02-21T13:20:11;13.50;99.90
24085;DHT22;12268;52.110;5.548;2024-02-21T13:22:37;13.40;99.90
24085;DHT22;12268;52.110;5.548;2024-02-21T13:25:04;13.40;99.90
24085;DHT22;12268;52.110;5.548;2024-02-21T13:27:30;13.30;99.90
24085;DHT22;12268;52.110;5.548;2024-02-21T13:29:56;13.20;99.90
24085;DHT22;12268;52.110;5.548;2024-02-21T13:32:21;13.10;99.90
24085;DHT22;12268;52.110;5.548;2024-02-21T13:34:47;13.20;99.90
24085;DHT22;12268;52.110;5.548;2024-02-21T13:37:13;13.20;99.90
24085;DHT22;12268;52.110;5.548;2024-02-21T13:39:40;13.10;99.90
24085;DHT22;12268;52.110;5.548;2024-02-21T13:42:06;13.10;99.90
24085;DHT22;12268;52.110;5.548;2024-02-21T13:44:32;13.10;99.90
24085;DHT22;12268;52.110;5.548;2024-02-21T13:46:57;13.20;99.90
24085;DHT22;12268;52.110;5.548;2024-02-21T13:49:23;13.00;99.90
24085;DHT22;12268;52.110;5.548;2024-02-21T13:51:49;13.10;99.90
24085;DHT22;12268;52.110;5.548;2024-02-21T13:54:14;13.10;99.90
24085;DHT22;12268;52.110;5.548;2024-02-21T13:56:42;13.20;99.90
24085;DHT22;12268;52.110;5.548;2024-02-21T13:59:08;13.20;99.90
24085;DHT22;12268;52.110;5.548;2024-02-21T14:01:34;13.10;99.90
24085;DHT22;12268;52.110;5.548;2024-02-21T14:04:01;13.10;99.90
24085;DHT22;12268;52.110;5.548;2024-02-21T14:06:27;13.20;99.90
24085;DHT22;12268;52.110;5.548;2024-02-21T14:08:53;13.00;99.90
24085;DHT22;12268;52.110;5.548;2024-02-21T14:11:18;13.00;99.90
24085;DHT22;12268;52.110;5.548;2024-02-21T14:13:44;13.00;99.90
24085;DHT22;12268;52.110;5.548;2024-02-21T14:16:10;13.30;99.90
24085;DHT22;12268;52.110;5.548;2024-02-21T14:18:42;13.20;99.90
24085;DHT22;12268;52.110;5.548;2024-02-21T14:21:08;13.40;99.90
24085;DHT22;12268;52.110;5.548;2024-02-21T14:23:36;13.30;99.90
24085;DHT22;12268;52.110;5.548;2024-02-21T14:26:03;12.90;99.90
24085;DHT22;12268;52.110;5.548;2024-02-21T14:28:29;12.90;99.90
24085;DHT22;12268;52.110;5.548;2024-02-21T14:30:54;12.90;99.90
24085;DHT22;12268;52.110;5.548;2024-02-21T14:33:29;13.00;99.90
24085;DHT22;12268;52.110;5.548;2024-02-21T14:35:56;13.20;99.90
24085;DHT22;12268;52.110;5.548;2024-02-21T14:38:22;13.20;99.90
24085;DHT22;12268;52.110;5.548;2024-02-21T14:40:48;13.30;99.90
24085;DHT22;12268;52.110;5.548;2024-02-21T14:43:14;13.20;99.90
24085;DHT22;12268;52.110;5.548;2024-02-21T14:45:40;12.90;99.90
24085;DHT22;12268;52.110;5.548;2024-02-21T14:48:06;13.10;99.90
24085;DHT22;12268;52.110;5.548;2024-02-21T14:50:32;13.00;99.90
24085;DHT22;12268;52.110;5.548;2024-02-21T14:52:58;13.00;99.90
24085;DHT22;12268;52.110;5.548;2024-02-21T14:55:24;12.80;99.90
24085;DHT22;12268;52.110;5.548;2024-02-21T14:57:50;12.70;99.90
24085;DHT22;12268;52.110;5.548;2024-02-21T15:00:16;12.50;99.90
24085;DHT22;12268;52.110;5.548;2024-02-21T15:02:42;12.70;99.90
24085;DHT22;12268;52.110;5.548;2024-02-21T15:05:10;12.80;99.90
24085;DHT22;12268;52.110;5.548;2024-02-21T15:07:38;12.90;99.90
24085;DHT22;12268;52.110;5.548;2024-02-21T15:10:04;12.70;99.90
24085;DHT22;12268;52.110;5.548;2024-02-21T15:12:29;12.60;99.90
24085;DHT22;12268;52.110;5.548;2024-02-21T15:14:56;12.50;99.90
24085;DHT22;12268;52.110;5.548;2024-02-21T15:17:22;12.40;99.90
24085;DHT22;12268;52.110;5.548;2024-02-21T15:19:48;12.20;99.90
24085;DHT22;12268;52.110;5.548;2024-02-21T15:22:13;12.10;99.90
24085;DHT22;12268;52.110;5.548;2024-02-21T15:24:40;12.10;99.90
24085;DHT22;12268;52.110;5.548;2024-02-21T15:27:06;12.00;99.90
24085;DHT22;12268;52.110;5.548;2024-02-21T15:29:31;11.80;99.90
24085;DHT22;12268;52.110;5.548;2024-02-21T15:31:57;11.70;99.90
24085;DHT22;12268;52.110;5.548;2024-02-21T15:34:23;11.60;99.90
24085;DHT22;12268;52.110;5.548;2024-02-21T15:36:49;11.60;99.90
24085;DHT22;12268;52.110;5.548;2024-02-21T15:39:14;11.60;99.90
24085;DHT22;12268;52.110;5.548;2024-02-21T15:41:40;11.70;99.90
24085;DHT22;12268;52.110;5.548;2024-02-21T15:44:06;11.60;99.90
24085;DHT22;12268;52.110;5.548;2024-02-21T15:46:32;11.60;99.90
24085;DHT22;12268;52.110;5.548;2024-02-21T15:49:05;11.60;99.90
24085;DHT22;12268;52.110;5.548;2024-02-21T15:51:31;11.60;99.90
24085;DHT22;12268;52.110;5.548;2024-02-21T15:53:58;11.70;99.90
24085;DHT22;12268;52.110;5.548;2024-02-21T15:56:24;11.70;99.90
24085;DHT22;12268;52.110;5.548;2024-02-21T15:58:50;11.60;99.90